Jonesboro Municipal Airport
KJBR : now visible

Airfield :











YOU CAN JOIN US ON...

 
LOGIN :

Register | Disclaimer

   EN    FR    IT 

 









Legend :    VFR   Marginal VFR   IFR   Intensive IFR   Very Intensive IFR
Visi :
Ceiling :
>= 8 km
>= 3000ft
5 to 8 km
1000 to 3000 ft
1500m to 5 km
500 to 1000 ft
800 to 1500m
200 to 500 ft
< 800m
< 200 ft
Symbols :   Thunderstorms  Fog  Heavy snow  Heavy precipitations  Wind > 20 kt






- Airport Elevation : 262 ft
- IATA code : JBR


KJBR - Jonesboro Municipal

CURRENT METAR :
  • 201453Z AUTO 00000KT 10SM CLR 03/M02 A3041 RMK AO2 SLP297 T00281017 51001 TSNO $

EXPIRED METARs :
  • 201353Z AUTO 34005KT 10SM CLR 00/M04 A3040 RMK AO2 SLP297 T00001039 TSNO $
  • 201253Z AUTO 32004KT 10SM CLR 01/M04 A3042 RMK AO2 SLP301 T00111044 TSNO $

TAF KJBR
Valid from the 20 at 12:00 until the 21 at 12:00 UTC


201134Z 2012/2112 VRB03KT P6SM BKN250
FM201800 20009KT P6SM SCT100 BKN250
FM202300 20009KT P6SM VCSH SCT025 OVC070
FM210200 21010KT 6SM -RA BKN025 OVC050
FM210400 24007KT 5SM -RA BR OVC015
KZME FIR / North America



MET'MAP, your aeronautical weather chart ! - Copyright ORBIFLY December 2007 - Disclaimer

ORBIFLY MET'MAP TEAM :

Programming & Development : Alexandra Zaïnal
Concept & original design : Baudouin d'Aumeries
Assistance for programming : Marc-Olivier Méhu
Technical & hardware support : Manuel Goepfert

Contact : metmap@orbifly.com




SOURCES & CREDITS :

   NOAA       Earth
Advisory